L'gov, Russia
Current Conditions -  °F | °C
As of 10:00 PM on Friday 24 Oct 2014 (Local Time) from UUOK Reporting Station
Clear Clear  
Wind Chill: 13°   Ceiling: Unl
Heat Index: 21°   Visibility: 6mi
Dew Point: 10°   Wind: 7mph
Humidity: 63%   Direction: 10°N
Pressure: 30.59"   Gusts: NA
Location:  51.65°N, 35.28°E
Report Text: UUOK 241900Z 01003MPS CAVOK M06/M12 Q1036 NOSIG RMK 30CLRD70
Loading
Personal Weather Stations






























Interactive Weather Map New forecast layout! Learn more

10-Day Weather Forecast

Advertisements
Track Severe Weather on mobile